createdAt,value
2022-11-05T00:00:51.656Z,83.47
2022-11-05T00:03:37.848Z,83.85
2022-11-05T00:06:24.454Z,83.96
2022-11-05T00:09:11.650Z,84.13
2022-11-05T00:11:57.537Z,84.21
2022-11-05T00:14:43.436Z,84.36
2022-11-05T00:17:11.793Z,84.24
2022-11-05T00:19:40.145Z,83.43
2022-11-05T00:22:22.393Z,83.74
2022-11-05T00:25:09.576Z,83.89
2022-11-05T00:27:37.984Z,84.15
2022-11-05T00:30:08.196Z,84.07
2022-11-05T00:32:36.595Z,83.64
2022-11-05T00:35:05.485Z,84.12
2022-11-05T00:37:33.872Z,84.09
2022-11-05T00:40:04.405Z,83.48
2022-11-05T00:42:50.202Z,83.96
2022-11-05T00:45:18.925Z,84.27
2022-11-05T00:48:04.706Z,83.60
2022-11-05T00:50:33.616Z,83.83
2022-11-05T00:53:02.459Z,83.87
2022-11-05T00:55:36.907Z,83.69
2022-11-05T00:58:06.953Z,83.95
2022-11-05T01:00:37.485Z,84.28
2022-11-05T01:03:08.571Z,84.22
2022-11-05T01:05:41.696Z,83.82
2022-11-05T01:08:11.117Z,83.93
2022-11-05T01:10:43.286Z,84.50
2022-11-05T01:13:13.385Z,84.46
2022-11-05T01:15:42.241Z,84.41
2022-11-05T01:18:10.880Z,83.79
2022-11-05T01:20:39.665Z,84.03
2022-11-05T01:23:13.175Z,84.55
2022-11-05T01:25:43.285Z,84.46
2022-11-05T01:28:11.977Z,84.43
2022-11-05T01:30:40.989Z,84.26
2022-11-05T01:33:09.692Z,84.30
2022-11-05T01:35:40.015Z,84.42
2022-11-05T01:38:08.593Z,84.73
2022-11-05T01:40:37.289Z,84.61
2022-11-05T01:43:15.369Z,84.23
2022-11-05T01:45:45.859Z,84.23
2022-11-05T01:48:18.117Z,84.05
2022-11-05T01:50:51.347Z,84.21
2022-11-05T01:53:26.281Z,84.11
2022-11-05T01:55:59.029Z,84.38
2022-11-05T01:58:33.743Z,83.97
2022-11-05T02:01:02.518Z,84.56
2022-11-05T02:03:31.453Z,84.30
2022-11-05T02:06:03.870Z,84.62
2022-11-05T02:08:49.635Z,84.03
2022-11-05T02:11:20.028Z,84.08
2022-11-05T02:13:50.493Z,84.47
2022-11-05T02:16:31.581Z,84.50
2022-11-05T02:19:14.446Z,84.57
2022-11-05T02:22:03.041Z,84.57
2022-11-05T02:25:01.710Z,84.33
2022-11-05T02:27:51.305Z,84.47
2022-11-05T02:30:43.301Z,84.19
2022-11-05T02:33:25.326Z,84.48
2022-11-05T02:36:14.486Z,84.75
2022-11-05T02:38:49.213Z,84.55
2022-11-05T02:41:25.885Z,84.15
2022-11-05T02:44:07.675Z,84.58
2022-11-05T02:46:48.133Z,83.98
2022-11-05T02:49:28.466Z,84.29
2022-11-05T02:51:59.560Z,84.57
2022-11-05T02:54:34.236Z,84.26
2022-11-05T02:57:04.842Z,83.92
2022-11-05T02:59:33.230Z,84.13
2022-11-05T03:02:05.264Z,83.93
2022-11-05T03:04:34.132Z,84.18
2022-11-05T03:07:20.381Z,84.38
2022-11-05T03:10:11.384Z,84.34
2022-11-05T03:12:48.406Z,84.31
2022-11-05T03:15:27.677Z,84.19
2022-11-05T03:18:07.823Z,84.01
2022-11-05T03:20:40.821Z,83.55
2022-11-05T03:23:16.285Z,84.00
2022-11-05T03:25:49.167Z,84.13
2022-11-05T03:28:21.054Z,83.89
2022-11-05T03:30:52.695Z,83.54
2022-11-05T03:33:27.265Z,83.30
2022-11-05T03:36:00.014Z,83.33
2022-11-05T03:38:33.873Z,83.74
2022-11-05T03:41:07.618Z,84.02
2022-11-05T03:43:38.754Z,83.39
2022-11-05T03:46:11.005Z,83.23
2022-11-05T03:48:45.674Z,83.72
2022-11-05T03:51:21.901Z,83.48
2022-11-05T03:53:54.846Z,83.87
2022-11-05T03:56:30.362Z,83.16
2022-11-05T03:59:01.585Z,83.62
2022-11-05T04:01:31.151Z,83.62
2022-11-05T04:04:00.898Z,83.68
2022-11-05T04:06:46.745Z,83.43
2022-11-05T04:09:32.770Z,83.69
2022-11-05T04:12:18.693Z,83.14
2022-11-05T04:14:46.999Z,83.34
2022-11-05T04:17:14.889Z,83.39
2022-11-05T04:20:03.636Z,83.25
2022-11-05T04:22:51.367Z,83.09
2022-11-05T04:25:21.317Z,82.99
2022-11-05T04:27:50.380Z,83.55
2022-11-05T04:30:19.028Z,83.71
2022-11-05T04:33:06.858Z,83.78
2022-11-05T04:35:39.271Z,83.56
2022-11-05T04:38:10.408Z,83.33
2022-11-05T04:40:39.428Z,83.73
2022-11-05T04:43:14.684Z,83.51
2022-11-05T04:45:44.526Z,83.03
2022-11-05T04:48:13.419Z,83.71
2022-11-05T04:50:43.389Z,83.07
2022-11-05T04:53:12.076Z,83.23
2022-11-05T04:55:40.579Z,83.62
2022-11-05T04:58:10.366Z,83.25
2022-11-05T05:00:38.783Z,83.43
2022-11-05T05:03:07.506Z,83.46
2022-11-05T05:05:35.985Z,83.14
2022-11-05T05:08:06.726Z,83.54
2022-11-05T05:10:35.397Z,83.19
2022-11-05T05:13:03.706Z,83.71
2022-11-05T05:15:32.408Z,83.83
2022-11-05T05:18:00.835Z,83.39
2022-11-05T05:20:47.025Z,83.47
2022-11-05T05:23:16.754Z,84.00
2022-11-05T05:25:45.125Z,83.79
2022-11-05T05:28:13.588Z,84.16
2022-11-05T05:30:41.924Z,84.02
2022-11-05T05:33:10.819Z,83.51
2022-11-05T05:35:39.393Z,83.69
2022-11-05T05:38:07.778Z,83.85
2022-11-05T05:40:37.522Z,83.64
2022-11-05T05:43:06.065Z,84.05
2022-11-05T05:45:36.613Z,83.61
2022-11-05T05:48:07.002Z,84.01
2022-11-05T05:50:35.389Z,83.99
2022-11-05T05:53:03.693Z,83.45
2022-11-05T05:55:31.977Z,83.68
2022-11-05T05:58:01.889Z,84.09
2022-11-05T06:00:30.261Z,84.07
2022-11-05T06:02:58.724Z,83.90
2022-11-05T06:05:27.241Z,83.79
2022-11-05T06:07:59.127Z,83.92
2022-11-05T06:10:27.541Z,84.03
2022-11-05T06:12:56.155Z,84.20
2022-11-05T06:15:25.890Z,84.08
2022-11-05T06:17:54.320Z,84.17
2022-11-05T06:20:22.646Z,84.44
2022-11-05T06:22:55.881Z,83.78
2022-11-05T06:25:24.581Z,83.72
2022-11-05T06:27:54.224Z,84.24
2022-11-05T06:30:23.641Z,84.25
2022-11-05T06:32:53.474Z,83.66
2022-11-05T06:35:21.872Z,84.41
2022-11-05T06:37:50.214Z,84.04
2022-11-05T06:40:18.676Z,84.15
2022-11-05T06:42:47.377Z,84.14
2022-11-05T06:45:15.924Z,84.16
2022-11-05T06:47:44.340Z,84.59
2022-11-05T06:50:14.055Z,84.64
2022-11-05T06:52:42.458Z,84.43
2022-11-05T06:55:10.900Z,84.31
2022-11-05T06:57:39.851Z,84.94
2022-11-05T07:00:10.253Z,84.99
2022-11-05T07:02:38.809Z,84.61
2022-11-05T07:05:11.063Z,84.61
2022-11-05T07:07:42.016Z,85.09
2022-11-05T07:10:13.891Z,84.71
2022-11-05T07:12:42.223Z,85.03
2022-11-05T07:15:12.118Z,85.14
2022-11-05T07:17:41.017Z,85.04
2022-11-05T07:20:10.748Z,85.50
2022-11-05T07:22:40.640Z,85.47
2022-11-05T07:25:09.778Z,85.42
2022-11-05T07:27:41.292Z,85.15
2022-11-05T07:30:11.465Z,85.57
2022-11-05T07:32:40.573Z,85.01
2022-11-05T07:35:10.570Z,85.09
2022-11-05T07:37:47.310Z,85.58
2022-11-05T07:40:19.231Z,85.15
2022-11-05T07:42:49.506Z,85.26
2022-11-05T07:45:18.420Z,85.32
2022-11-05T07:47:48.133Z,85.69
2022-11-05T07:50:17.580Z,85.55
2022-11-05T07:52:48.048Z,85.33
2022-11-05T07:55:16.739Z,85.80
2022-11-05T07:57:46.648Z,85.68
2022-11-05T08:00:16.844Z,85.24
2022-11-05T08:02:45.463Z,85.77
2022-11-05T08:05:13.994Z,85.91
2022-11-05T08:07:42.367Z,85.82
2022-11-05T08:10:12.117Z,85.71
2022-11-05T08:12:40.488Z,85.78
2022-11-05T08:15:10.108Z,85.42
2022-11-05T08:17:38.491Z,85.62
2022-11-05T08:20:07.953Z,85.94
2022-11-05T08:22:36.355Z,85.90
2022-11-05T08:25:06.948Z,85.50
2022-11-05T08:27:39.096Z,85.74
2022-11-05T08:30:09.179Z,85.56
2022-11-05T08:32:37.564Z,85.85
2022-11-05T08:35:06.850Z,86.00
2022-11-05T08:37:35.188Z,85.92
2022-11-05T08:40:03.584Z,85.49
2022-11-05T08:42:32.016Z,85.64
2022-11-05T08:45:01.925Z,85.95
2022-11-05T08:47:31.117Z,85.92
2022-11-05T08:49:59.517Z,85.63
2022-11-05T08:52:30.253Z,85.53
2022-11-05T08:54:58.627Z,85.67
2022-11-05T08:57:27.283Z,86.20
2022-11-05T08:59:56.389Z,85.65
2022-11-05T09:02:26.324Z,85.83
2022-11-05T09:04:54.898Z,85.78
2022-11-05T09:07:23.902Z,86.02
2022-11-05T09:09:52.383Z,86.11
2022-11-05T09:12:20.837Z,86.30
2022-11-05T09:14:49.213Z,86.13
2022-11-05T09:17:19.277Z,85.76
2022-11-05T09:19:49.557Z,85.68
2022-11-05T09:22:18.057Z,85.97
2022-11-05T09:24:46.501Z,85.97
2022-11-05T09:27:15.241Z,85.65
2022-11-05T09:29:43.846Z,85.74
2022-11-05T09:32:12.141Z,85.63
2022-11-05T09:34:41.757Z,85.87
2022-11-05T09:37:11.798Z,85.79
2022-11-05T09:39:43.892Z,85.83
2022-11-05T09:43:04.172Z,85.52
2022-11-05T09:45:38.679Z,85.80
2022-11-05T09:48:26.446Z,85.83
2022-11-05T09:50:58.689Z,85.78
2022-11-05T09:53:29.637Z,85.63
2022-11-05T09:56:00.496Z,85.60
2022-11-05T09:58:38.925Z,85.89
2022-11-05T10:01:12.611Z,85.79
2022-11-05T10:03:48.458Z,85.63
2022-11-05T10:06:20.937Z,85.68
2022-11-05T10:08:56.291Z,85.66
2022-11-05T10:11:31.516Z,85.77
2022-11-05T10:14:04.685Z,85.65
2022-11-05T10:16:38.204Z,85.40
2022-11-05T10:19:10.856Z,85.51
2022-11-05T10:24:30.324Z,85.52
2022-11-05T10:26:59.358Z,85.70
2022-11-05T10:29:30.526Z,85.49
2022-11-05T10:32:00.954Z,85.73
2022-11-05T10:34:33.064Z,85.69
2022-11-05T10:37:01.690Z,85.63
2022-11-05T10:39:33.591Z,85.86
2022-11-05T10:42:32.286Z,85.68
2022-11-05T10:45:08.232Z,85.96
2022-11-05T10:47:57.143Z,85.93
2022-11-05T10:50:29.512Z,85.40
2022-11-05T10:53:00.858Z,85.34
2022-11-05T10:55:33.855Z,85.43
2022-11-05T10:58:10.738Z,85.06
2022-11-05T11:00:39.597Z,85.63
2022-11-05T11:03:36.135Z,85.51
2022-11-05T11:06:07.730Z,85.07
2022-11-05T11:08:39.829Z,85.18
2022-11-05T11:11:12.758Z,85.38
2022-11-05T11:13:52.090Z,84.90
2022-11-05T11:16:22.704Z,85.11
2022-11-05T11:18:55.516Z,85.09
2022-11-05T11:21:24.606Z,85.18
2022-11-05T11:23:57.501Z,85.35
2022-11-05T11:26:30.213Z,85.35
2022-11-05T11:29:03.434Z,85.02
2022-11-05T11:31:39.233Z,85.11
2022-11-05T11:34:16.415Z,84.98
2022-11-05T11:36:47.077Z,85.28
2022-11-05T11:39:25.320Z,85.37
2022-11-05T11:41:57.186Z,85.17
2022-11-05T11:44:29.600Z,85.77
2022-11-05T11:47:02.298Z,85.59
2022-11-05T11:49:36.169Z,85.35
2022-11-05T11:52:11.701Z,85.73
2022-11-05T11:54:40.121Z,85.56
2022-11-05T11:57:23.508Z,85.52
2022-11-05T12:00:08.504Z,85.92
2022-11-05T12:03:01.932Z,85.66
2022-11-05T12:05:46.833Z,85.67
2022-11-05T12:08:35.358Z,85.55
2022-11-05T12:11:08.243Z,85.63
2022-11-05T12:14:05.410Z,85.84
2022-11-05T12:17:07.297Z,85.65
2022-11-05T12:20:01.568Z,85.82
2022-11-05T12:22:43.170Z,85.49
2022-11-05T12:25:20.310Z,86.07
2022-11-05T12:28:18.835Z,86.03
2022-11-05T12:30:55.464Z,85.67
2022-11-05T12:33:35.972Z,85.79
2022-11-05T12:36:33.834Z,85.74
2022-11-05T12:39:21.409Z,86.13
2022-11-05T12:42:01.374Z,86.20
2022-11-05T12:44:44.306Z,85.86
2022-11-05T12:47:29.167Z,85.95
2022-11-05T12:50:11.088Z,86.22
2022-11-05T12:53:13.896Z,86.31
2022-11-05T12:55:48.853Z,86.31
2022-11-05T12:58:24.724Z,85.81
2022-11-05T13:00:58.810Z,86.13
2022-11-05T13:03:41.485Z,86.30
2022-11-05T13:06:14.390Z,86.32
2022-11-05T13:08:47.678Z,86.46
2022-11-05T13:11:21.264Z,86.47
2022-11-05T13:13:59.602Z,86.44
2022-11-05T13:16:31.961Z,86.38
2022-11-05T13:19:08.265Z,86.55
2022-11-05T13:21:39.338Z,86.64
2022-11-05T13:24:16.921Z,86.41
2022-11-05T13:26:50.967Z,86.18
2022-11-05T13:29:24.200Z,86.59
2022-11-05T13:31:58.535Z,86.89
2022-11-05T13:34:32.230Z,86.64
2022-11-05T13:37:23.353Z,87.00
2022-11-05T13:39:56.407Z,86.79
2022-11-05T13:43:00.088Z,86.54
2022-11-05T13:45:51.076Z,86.67
2022-11-05T13:48:40.932Z,86.46
2022-11-05T13:51:38.606Z,86.27
2022-11-05T13:54:30.265Z,86.89
2022-11-05T13:57:12.253Z,86.83
2022-11-05T14:00:03.364Z,86.69
2022-11-05T14:02:40.147Z,86.47
2022-11-05T14:05:21.018Z,86.86
2022-11-05T14:07:51.392Z,87.00
2022-11-05T14:10:39.441Z,86.92
2022-11-05T14:13:21.861Z,87.18
2022-11-05T14:15:59.265Z,86.78
2022-11-05T14:18:41.115Z,86.89
2022-11-05T14:21:32.384Z,87.13
2022-11-05T14:24:24.949Z,87.07
2022-11-05T14:27:45.493Z,87.15
2022-11-05T14:30:41.505Z,87.09
2022-11-05T14:33:32.190Z,86.85
2022-11-05T14:36:32.906Z,86.94
2022-11-05T14:39:18.224Z,86.84
2022-11-05T14:41:58.966Z,86.85
2022-11-05T14:44:28.997Z,86.89
2022-11-05T14:47:00.760Z,86.89
2022-11-05T14:49:32.725Z,86.88
2022-11-05T14:52:07.385Z,87.45
2022-11-05T14:54:43.777Z,87.20
2022-11-05T14:57:14.695Z,87.11
2022-11-05T15:00:01.036Z,87.63
2022-11-05T15:02:36.264Z,87.55
2022-11-05T15:05:40.785Z,87.56
2022-11-05T15:08:31.965Z,87.58
2022-11-05T15:11:12.463Z,87.96
2022-11-05T15:13:50.273Z,87.32
2022-11-05T15:16:24.717Z,87.63
2022-11-05T15:18:56.437Z,87.41
2022-11-05T15:21:26.305Z,87.82
2022-11-05T15:23:57.577Z,87.81
2022-11-05T15:26:37.476Z,87.46
2022-11-05T15:29:17.314Z,87.97
2022-11-05T15:31:47.045Z,87.91
2022-11-05T15:34:22.246Z,88.04
2022-11-05T15:36:53.909Z,87.76
2022-11-05T15:39:30.160Z,87.70
2022-11-05T15:42:02.808Z,87.82
2022-11-05T15:44:33.045Z,88.25
2022-11-05T15:47:20.256Z,87.63
2022-11-05T15:49:51.287Z,88.24
2022-11-05T15:52:22.301Z,87.91
2022-11-05T15:55:18.472Z,88.00
2022-11-05T15:57:51.434Z,88.53
2022-11-05T16:00:22.306Z,87.67
2022-11-05T16:02:54.641Z,88.06
2022-11-05T16:05:24.413Z,88.02
2022-11-05T16:07:52.952Z,87.94
2022-11-05T16:10:31.882Z,88.38
2022-11-05T16:13:29.996Z,88.32
2022-11-05T16:16:00.202Z,88.04
2022-11-05T16:18:32.848Z,88.26
2022-11-05T16:21:03.570Z,88.05
2022-11-05T16:23:46.568Z,88.00
2022-11-05T16:27:04.053Z,87.91
2022-11-05T16:29:29.034Z,88.08
2022-11-05T16:31:58.941Z,88.01
2022-11-05T16:34:29.166Z,88.09
2022-11-05T16:36:58.569Z,88.20
2022-11-05T16:39:27.156Z,88.01
2022-11-05T16:41:55.554Z,88.44
2022-11-05T16:44:25.364Z,88.02
2022-11-05T16:46:54.042Z,88.18
2022-11-05T16:49:22.444Z,88.50
2022-11-05T16:51:50.809Z,88.28
2022-11-05T16:54:19.162Z,88.26
2022-11-05T16:56:47.776Z,88.16
2022-11-05T16:59:16.125Z,88.35
2022-11-05T17:01:48.247Z,88.14
2022-11-05T17:04:18.886Z,88.23
2022-11-05T17:06:49.087Z,88.04
2022-11-05T17:09:17.463Z,88.06
2022-11-05T17:11:45.866Z,87.87
2022-11-05T17:14:15.197Z,88.18
2022-11-05T17:16:45.129Z,88.29
2022-11-05T17:19:16.563Z,88.07
2022-11-05T17:21:45.203Z,88.23
2022-11-05T17:24:13.531Z,88.15
2022-11-05T17:26:41.973Z,88.45
2022-11-05T17:29:10.496Z,88.50
2022-11-05T17:31:40.569Z,88.35
2022-11-05T17:34:11.272Z,88.52
2022-11-05T17:36:39.673Z,88.33
2022-11-05T17:39:08.317Z,88.39
2022-11-05T17:41:36.676Z,88.39
2022-11-05T17:44:05.361Z,88.02
2022-11-05T17:46:33.810Z,88.00
2022-11-05T17:49:02.392Z,88.25
2022-11-05T17:51:32.815Z,88.33
2022-11-05T17:54:01.221Z,88.06
2022-11-05T17:56:35.076Z,88.27
2022-11-05T17:59:04.879Z,88.07
2022-11-05T18:01:35.560Z,88.23
2022-11-05T18:04:08.720Z,88.32
2022-11-05T18:06:39.929Z,88.11
2022-11-05T18:09:09.952Z,88.48
2022-11-05T18:11:39.601Z,87.93
2022-11-05T18:14:09.878Z,88.47
2022-11-05T18:16:38.502Z,88.01
2022-11-05T18:19:06.989Z,88.24
2022-11-05T18:21:35.578Z,88.37
2022-11-05T18:24:06.590Z,88.37
2022-11-05T18:26:35.785Z,88.07
2022-11-05T18:29:06.105Z,88.24
2022-11-05T18:31:34.582Z,88.39
2022-11-05T18:34:03.114Z,87.80
2022-11-05T18:36:32.808Z,88.19
2022-11-05T18:39:03.422Z,88.19
2022-11-05T18:41:34.028Z,88.40
2022-11-05T18:44:04.007Z,88.37
2022-11-05T18:46:56.946Z,88.56
2022-11-05T18:49:22.182Z,88.37
2022-11-05T18:51:50.625Z,87.92
2022-11-05T18:54:18.979Z,88.36
2022-11-05T18:56:48.793Z,88.44
2022-11-05T18:59:36.321Z,88.07
2022-11-05T19:02:05.649Z,88.44
2022-11-05T19:04:35.698Z,88.07
2022-11-05T19:07:05.784Z,88.17
2022-11-05T19:09:35.049Z,88.40
2022-11-05T19:12:06.365Z,88.80
2022-11-05T19:14:35.063Z,88.56
2022-11-05T19:17:04.366Z,88.71
2022-11-05T19:19:33.174Z,88.60
2022-11-05T19:22:01.622Z,88.94
2022-11-05T19:24:31.914Z,89.03
2022-11-05T19:27:00.392Z,89.17
2022-11-05T19:29:31.529Z,89.28
2022-11-05T19:32:02.429Z,89.45
2022-11-05T19:34:31.270Z,89.42
2022-11-05T19:37:01.119Z,89.20
2022-11-05T19:39:30.959Z,89.27
2022-11-05T19:42:03.885Z,89.34
2022-11-05T19:44:34.610Z,89.08
2022-11-05T19:47:02.949Z,89.30
2022-11-05T19:49:31.360Z,89.13
2022-11-05T19:52:00.961Z,89.18
2022-11-05T19:54:30.222Z,89.25
2022-11-05T19:56:59.338Z,89.56
2022-11-05T19:59:27.882Z,89.22
2022-11-05T20:01:58.036Z,89.12
2022-11-05T20:04:26.502Z,89.48
2022-11-05T20:06:54.875Z,89.34
2022-11-05T20:09:23.789Z,89.44
2022-11-05T20:11:54.257Z,89.54
2022-11-05T20:14:24.126Z,89.17
2022-11-05T20:16:52.993Z,89.68
2022-11-05T20:19:23.720Z,89.57
2022-11-05T20:21:52.387Z,89.47
2022-11-05T20:24:25.177Z,89.76
2022-11-05T20:26:55.103Z,90.21
2022-11-05T20:29:27.862Z,89.70
2022-11-05T20:31:59.118Z,90.03
2022-11-05T20:34:29.570Z,89.71
2022-11-05T20:36:57.915Z,90.10
2022-11-05T20:39:26.338Z,89.81
2022-11-05T20:41:56.367Z,89.79
2022-11-05T20:44:24.926Z,89.92
2022-11-05T20:46:53.515Z,89.84
2022-11-05T20:49:25.335Z,90.16
2022-11-05T20:51:56.049Z,90.09
2022-11-05T20:54:24.568Z,89.79
2022-11-05T20:56:52.925Z,89.99
2022-11-05T20:59:21.338Z,90.00
2022-11-05T21:01:51.519Z,90.45
2022-11-05T21:04:20.132Z,90.09
2022-11-05T21:06:48.626Z,90.18
2022-11-05T21:09:18.501Z,90.10
2022-11-05T21:12:05.109Z,90.73
2022-11-05T21:14:33.425Z,90.77
2022-11-05T21:17:01.761Z,90.83
2022-11-05T21:19:31.938Z,90.74
2022-11-05T21:22:00.398Z,90.73
2022-11-05T21:24:30.241Z,90.70
2022-11-05T21:26:58.630Z,91.22
2022-11-05T21:29:26.980Z,90.87
2022-11-05T21:31:55.370Z,90.77
2022-11-05T21:34:23.784Z,90.61
2022-11-05T21:36:52.595Z,90.77
2022-11-05T21:39:21.124Z,90.59
2022-11-05T21:41:50.814Z,90.76
2022-11-05T21:44:19.270Z,90.96
2022-11-05T21:46:47.653Z,90.62
2022-11-05T21:49:16.140Z,90.82
2022-11-05T21:52:01.941Z,90.97
2022-11-05T21:54:47.850Z,90.69
2022-11-05T21:57:36.868Z,90.87
2022-11-05T22:00:06.897Z,90.64
2022-11-05T22:02:35.517Z,90.65
2022-11-05T22:05:05.330Z,91.00
2022-11-05T22:07:35.499Z,90.91
2022-11-05T22:10:06.553Z,90.95
2022-11-05T22:12:36.436Z,91.18
2022-11-05T22:15:05.940Z,90.88
2022-11-05T22:17:34.308Z,91.08
2022-11-05T22:20:03.085Z,90.97
2022-11-05T22:22:31.414Z,91.34
2022-11-05T22:24:59.818Z,91.25
2022-11-05T22:27:28.167Z,91.34
2022-11-05T22:29:57.929Z,91.06
2022-11-05T22:32:26.333Z,91.36
2022-11-05T22:34:54.675Z,91.52
2022-11-05T22:37:23.021Z,91.20
2022-11-05T22:39:51.863Z,91.17
2022-11-05T22:42:20.265Z,91.10
2022-11-05T22:44:49.027Z,91.67
2022-11-05T22:47:18.937Z,91.44
2022-11-05T22:49:50.238Z,91.63
2022-11-05T22:52:18.604Z,91.41
2022-11-05T22:54:47.754Z,91.71
2022-11-05T22:57:16.154Z,91.60
2022-11-05T22:59:44.500Z,91.28
2022-11-05T23:02:12.998Z,91.30
2022-11-05T23:04:42.965Z,91.40
2022-11-05T23:07:29.389Z,91.61
2022-11-05T23:10:15.497Z,91.17
2022-11-05T23:12:44.611Z,91.40
2022-11-05T23:15:34.404Z,91.31
2022-11-05T23:18:20.492Z,91.43
2022-11-05T23:21:07.529Z,91.25
2022-11-05T23:23:53.443Z,91.43
2022-11-05T23:26:41.677Z,91.51
2022-11-05T23:29:10.072Z,91.01
2022-11-05T23:31:56.020Z,91.33
2022-11-05T23:34:24.361Z,91.09
2022-11-05T23:37:11.586Z,90.96
2022-11-05T23:39:42.916Z,91.13
2022-11-05T23:42:29.645Z,91.12
2022-11-05T23:45:15.477Z,91.28
2022-11-05T23:48:01.436Z,90.98
2022-11-05T23:50:34.326Z,90.96
2022-11-05T23:53:08.602Z,91.09
2022-11-05T23:55:37.129Z,90.96
2022-11-05T23:58:05.674Z,91.03
